createdAt,value
2023-04-09T00:00:50.603Z,27.20
2023-04-09T00:03:18.816Z,17.00
2023-04-09T00:05:46.903Z,21.60
2023-04-09T00:08:14.542Z,22.20
2023-04-09T00:10:42.281Z,29.20
2023-04-09T00:13:10.077Z,16.20
2023-04-09T00:15:37.797Z,22.40
2023-04-09T00:18:05.740Z,22.60
2023-04-09T00:20:33.492Z,22.80
2023-04-09T00:23:01.510Z,20.40
2023-04-09T00:25:29.659Z,21.60
2023-04-09T00:27:57.698Z,16.40
2023-04-09T00:30:25.429Z,21.00
2023-04-09T00:32:53.136Z,8.80
2023-04-09T00:35:20.852Z,16.20
2023-04-09T00:37:48.410Z,19.00
2023-04-09T00:40:16.049Z,16.80
2023-04-09T00:42:43.780Z,16.20
2023-04-09T00:45:11.392Z,12.00
2023-04-09T00:47:39.540Z,14.60
2023-04-09T00:50:07.233Z,12.80
2023-04-09T00:52:35.214Z,15.00
2023-04-09T00:55:03.286Z,7.80
2023-04-09T00:57:31.032Z,19.00
2023-04-09T00:59:58.643Z,12.00
2023-04-09T01:02:26.345Z,18.20
2023-04-09T01:04:54.397Z,11.20
2023-04-09T01:07:22.078Z,16.80
2023-04-09T01:09:50.121Z,10.40
2023-04-09T01:12:17.785Z,18.80
2023-04-09T01:14:45.444Z,12.00
2023-04-09T01:17:13.389Z,15.40
2023-04-09T01:19:41.494Z,15.00
2023-04-09T01:22:09.108Z,7.00
2023-04-09T01:24:36.723Z,14.20
2023-04-09T01:27:04.356Z,17.20
2023-04-09T01:29:32.339Z,13.00
2023-04-09T01:31:59.904Z,15.60
2023-04-09T01:34:27.560Z,16.00
2023-04-09T01:36:55.226Z,16.80
2023-04-09T01:39:22.833Z,9.20
2023-04-09T01:41:50.766Z,13.60
2023-04-09T01:44:18.607Z,13.40
2023-04-09T01:46:46.211Z,9.80
2023-04-09T01:49:13.873Z,11.20
2023-04-09T01:51:41.488Z,10.80
2023-04-09T01:54:09.764Z,12.20
2023-04-09T01:56:37.479Z,12.40
2023-04-09T01:59:05.069Z,16.00
2023-04-09T02:01:32.742Z,11.20
2023-04-09T02:04:00.553Z,9.40
2023-04-09T02:06:28.760Z,10.00
2023-04-09T02:08:56.347Z,13.00
2023-04-09T02:11:23.973Z,8.80
2023-04-09T02:13:51.610Z,14.20
2023-04-09T02:16:19.855Z,5.60
2023-04-09T02:18:47.978Z,10.80
2023-04-09T02:21:15.583Z,11.20
2023-04-09T02:23:58.460Z,12.80
2023-04-09T02:26:26.072Z,14.80
2023-04-09T02:28:54.103Z,14.20
2023-04-09T02:31:22.231Z,15.00
2023-04-09T02:33:49.844Z,12.40
2023-04-09T02:36:17.436Z,16.00
2023-04-09T02:38:45.080Z,10.00
2023-04-09T02:41:12.716Z,15.40
2023-04-09T02:43:40.333Z,11.60
2023-04-09T02:46:07.979Z,10.80
2023-04-09T02:48:35.608Z,11.20
2023-04-09T02:51:03.239Z,6.60
2023-04-09T02:53:30.851Z,12.20
2023-04-09T02:55:58.441Z,12.20
2023-04-09T02:58:26.434Z,12.40
2023-04-09T03:00:54.031Z,10.40
2023-04-09T03:03:21.683Z,1.80
2023-04-09T03:05:49.739Z,8.40
2023-04-09T03:08:17.375Z,8.40
2023-04-09T03:10:44.932Z,7.00
2023-04-09T03:13:12.614Z,10.40
2023-04-09T03:15:40.300Z,10.80
2023-04-09T03:18:07.963Z,6.20
2023-04-09T03:20:36.781Z,6.00
2023-04-09T03:23:04.385Z,12.20
2023-04-09T03:25:31.929Z,8.60
2023-04-09T03:27:59.730Z,10.00
2023-04-09T03:30:27.754Z,12.00
2023-04-09T03:32:55.409Z,13.00
2023-04-09T03:35:23.067Z,9.00
2023-04-09T03:37:50.725Z,12.40
2023-04-09T03:40:18.313Z,13.80
2023-04-09T03:42:46.765Z,12.20
2023-04-09T03:45:14.491Z,10.40
2023-04-09T03:47:42.184Z,13.80
2023-04-09T03:50:09.837Z,12.00
2023-04-09T03:52:37.435Z,11.00
2023-04-09T03:55:05.700Z,10.60
2023-04-09T03:57:33.430Z,12.20
2023-04-09T04:00:01.107Z,11.20
2023-04-09T04:02:31.450Z,10.80
2023-04-09T04:04:59.538Z,5.20
2023-04-09T04:07:27.759Z,8.60
2023-04-09T04:09:55.566Z,9.40
2023-04-09T04:12:23.173Z,7.60
2023-04-09T04:14:50.759Z,12.00
2023-04-09T04:17:18.336Z,9.40
2023-04-09T04:19:46.267Z,10.00
2023-04-09T04:22:14.083Z,10.80
2023-04-09T04:24:41.690Z,6.00
2023-04-09T04:27:09.648Z,9.40
2023-04-09T04:29:37.761Z,9.60
2023-04-09T04:32:05.315Z,6.80
2023-04-09T04:34:32.900Z,7.40
2023-04-09T04:37:00.488Z,8.60
2023-04-09T04:39:28.099Z,13.00
2023-04-09T04:41:55.811Z,10.40
2023-04-09T04:44:23.764Z,12.00
2023-04-09T04:46:51.608Z,10.80
2023-04-09T04:49:19.584Z,9.20
2023-04-09T04:51:47.177Z,6.20
2023-04-09T04:54:14.757Z,7.40
2023-04-09T04:56:42.694Z,5.20
2023-04-09T04:59:10.474Z,7.00
2023-04-09T05:01:38.238Z,12.20
2023-04-09T05:04:05.921Z,10.20
2023-04-09T05:06:33.723Z,8.60
2023-04-09T05:09:01.992Z,11.00
2023-04-09T05:11:30.837Z,6.00
2023-04-09T05:13:58.483Z,9.60
2023-04-09T05:16:26.103Z,9.20
2023-04-09T05:18:54.075Z,15.60
2023-04-09T05:21:22.410Z,12.40
2023-04-09T05:23:50.026Z,4.40
2023-04-09T05:26:17.575Z,7.40
2023-04-09T05:28:45.208Z,12.00
2023-04-09T05:31:13.493Z,13.80
2023-04-09T05:33:41.578Z,8.40
2023-04-09T05:36:09.452Z,12.20
2023-04-09T05:38:37.040Z,7.00
2023-04-09T05:41:04.608Z,12.60
2023-04-09T05:43:32.218Z,18.60
2023-04-09T05:46:00.239Z,16.80
2023-04-09T05:48:28.042Z,12.00
2023-04-09T05:50:56.057Z,18.60
2023-04-09T05:53:23.738Z,19.80
2023-04-09T05:55:51.784Z,18.80
2023-04-09T05:58:20.364Z,13.00
2023-04-09T06:00:47.982Z,16.40
2023-04-09T06:03:15.714Z,20.60
2023-04-09T06:05:43.477Z,15.60
2023-04-09T06:08:11.219Z,23.60
2023-04-09T06:10:41.034Z,20.80
2023-04-09T06:13:09.030Z,9.60
2023-04-09T06:15:36.613Z,13.80
2023-04-09T06:18:04.486Z,17.40
2023-04-09T06:20:32.139Z,17.20
2023-04-09T06:23:00.109Z,15.40
2023-04-09T06:25:27.740Z,17.60
2023-04-09T06:27:55.382Z,15.60
2023-04-09T06:30:23.171Z,12.80
2023-04-09T06:32:55.024Z,13.00
2023-04-09T06:35:23.293Z,18.40
2023-04-09T06:37:51.082Z,19.40
2023-04-09T06:40:20.685Z,14.60
2023-04-09T06:42:49.980Z,18.20
2023-04-09T06:45:17.572Z,18.60
2023-04-09T06:47:45.199Z,15.40
2023-04-09T06:50:12.999Z,18.40
2023-04-09T06:52:40.580Z,15.80
2023-04-09T06:55:08.172Z,19.40
2023-04-09T06:57:35.984Z,18.20
2023-04-09T07:00:04.095Z,7.40
2023-04-09T07:02:31.858Z,12.00
2023-04-09T07:05:01.098Z,16.20
2023-04-09T07:07:28.692Z,17.60
2023-04-09T07:09:56.376Z,20.20
2023-04-09T07:12:24.399Z,17.20
2023-04-09T07:14:52.296Z,20.00
2023-04-09T07:17:19.957Z,6.00
2023-04-09T07:19:47.641Z,13.80
2023-04-09T07:22:15.556Z,17.20
2023-04-09T07:24:43.877Z,16.00
2023-04-09T07:27:11.519Z,17.00
2023-04-09T07:29:39.162Z,6.20
2023-04-09T07:32:06.742Z,13.80
2023-04-09T07:34:34.376Z,18.00
2023-04-09T07:37:02.331Z,16.20
2023-04-09T07:39:29.993Z,12.00
2023-04-09T07:41:57.757Z,21.00
2023-04-09T07:44:25.703Z,5.25
2023-04-09T07:46:53.832Z,9.60
2023-04-09T07:49:22.063Z,10.50
2023-04-09T07:51:49.722Z,15.75
2023-04-09T07:54:17.311Z,21.20
2023-04-09T07:56:44.969Z,16.00
2023-04-09T07:59:12.653Z,19.00
2023-04-09T08:01:40.729Z,12.00
2023-04-09T08:04:08.878Z,17.00
2023-04-09T08:06:37.758Z,16.00
2023-04-09T08:09:05.725Z,14.75
2023-04-09T08:11:33.384Z,14.00
2023-04-09T08:14:03.497Z,18.00
2023-04-09T08:16:31.804Z,20.00
2023-04-09T08:18:59.531Z,20.00
2023-04-09T08:21:27.195Z,14.00
2023-04-09T08:23:59.430Z,18.00
2023-04-09T08:26:27.536Z,15.75
2023-04-09T08:28:55.508Z,18.00
2023-04-09T08:31:23.292Z,12.75
2023-04-09T08:33:51.147Z,16.25
2023-04-09T08:36:18.853Z,4.00
2023-04-09T08:38:47.718Z,9.50
2023-04-09T08:41:15.655Z,14.00
2023-04-09T08:43:57.115Z,14.00
2023-04-09T08:46:26.670Z,5.00
2023-04-09T08:48:54.658Z,9.00
2023-04-09T08:51:23.666Z,11.50
2023-04-09T08:53:53.550Z,12.00
2023-04-09T08:56:22.077Z,10.00
2023-04-09T08:58:49.764Z,10.50
2023-04-09T09:01:17.814Z,10.00
2023-04-09T09:03:45.626Z,9.00
2023-04-09T09:06:13.495Z,6.50
2023-04-09T09:08:41.177Z,7.50
2023-04-09T09:11:08.820Z,12.00
2023-04-09T09:13:37.202Z,12.00
2023-04-09T09:16:05.048Z,12.00
2023-04-09T09:18:32.683Z,6.00
2023-04-09T09:21:00.473Z,3.75
2023-04-09T09:23:28.567Z,12.00
2023-04-09T09:25:56.615Z,10.00
2023-04-09T09:28:24.208Z,11.00
2023-04-09T09:30:51.959Z,8.00
2023-04-09T09:33:19.694Z,12.00
2023-04-09T09:35:48.285Z,12.00
2023-04-09T09:38:16.764Z,9.00
2023-04-09T09:40:44.400Z,7.00
2023-04-09T09:43:14.148Z,8.00
2023-04-09T09:45:43.667Z,8.50
2023-04-09T09:48:11.546Z,6.25
2023-04-09T09:50:40.192Z,13.00
2023-04-09T09:53:07.957Z,9.75
2023-04-09T09:55:35.730Z,7.75
2023-04-09T09:58:04.018Z,9.00
2023-04-09T10:00:31.842Z,5.50
2023-04-09T10:03:00.190Z,11.50
2023-04-09T10:05:29.534Z,14.00
2023-04-09T10:07:57.293Z,9.40
2023-04-09T10:10:25.025Z,12.40
2023-04-09T10:12:52.909Z,11.80
2023-04-09T10:15:21.024Z,7.40
2023-04-09T10:17:48.751Z,10.80
2023-04-09T10:20:16.882Z,10.00
2023-04-09T10:22:44.643Z,13.00
2023-04-09T10:25:12.425Z,6.60
2023-04-09T10:27:40.472Z,10.00
2023-04-09T10:30:10.880Z,10.40
2023-04-09T10:32:38.584Z,9.00
2023-04-09T10:35:07.220Z,10.40
2023-04-09T10:37:35.125Z,9.20
2023-04-09T10:40:03.466Z,10.60
2023-04-09T10:42:33.127Z,12.40
2023-04-09T10:45:01.100Z,7.40
2023-04-09T10:47:29.117Z,13.00
2023-04-09T10:49:56.841Z,10.00
2023-04-09T10:52:24.731Z,6.80
2023-04-09T10:54:52.609Z,12.00
2023-04-09T10:57:20.900Z,11.60
2023-04-09T10:59:48.686Z,11.60
2023-04-09T11:02:16.411Z,13.80
2023-04-09T11:04:44.974Z,10.60
2023-04-09T11:07:13.409Z,9.20
2023-04-09T11:09:41.161Z,12.80
2023-04-09T11:12:08.845Z,11.60
2023-04-09T11:14:36.848Z,11.20
2023-04-09T11:17:04.964Z,7.40
2023-04-09T11:19:32.779Z,10.00
2023-04-09T11:22:00.707Z,11.20
2023-04-09T11:24:28.471Z,13.00
2023-04-09T11:26:56.970Z,3.00
2023-04-09T11:29:24.839Z,12.00
2023-04-09T11:31:52.791Z,9.40
2023-04-09T11:34:20.758Z,14.20
2023-04-09T11:36:48.528Z,10.20
2023-04-09T11:39:16.367Z,11.80
2023-04-09T11:41:44.515Z,12.00
2023-04-09T11:44:12.276Z,12.20
2023-04-09T11:46:40.146Z,12.40
2023-04-09T11:49:08.436Z,15.60
2023-04-09T11:51:36.301Z,14.00
2023-04-09T11:54:04.782Z,16.00
2023-04-09T11:56:32.903Z,10.80
2023-04-09T11:59:00.682Z,12.00
2023-04-09T12:01:28.477Z,11.80
2023-04-09T12:03:56.402Z,11.60
2023-04-09T12:06:25.327Z,11.20
2023-04-09T12:08:53.545Z,13.20
2023-04-09T12:11:21.902Z,7.20
2023-04-09T12:13:49.727Z,13.00
2023-04-09T12:16:17.564Z,8.20
2023-04-09T12:18:45.443Z,12.80
2023-04-09T12:21:13.367Z,9.60
2023-04-09T12:23:41.204Z,10.00
2023-04-09T12:26:09.019Z,10.40
2023-04-09T12:28:37.017Z,12.00
2023-04-09T12:31:05.236Z,14.60
2023-04-09T12:33:34.179Z,6.60
2023-04-09T12:36:02.024Z,10.40
2023-04-09T12:38:29.946Z,12.60
2023-04-09T12:40:57.651Z,13.80
2023-04-09T12:43:25.898Z,10.80
2023-04-09T12:45:54.146Z,6.80
2023-04-09T12:48:22.095Z,9.00
2023-04-09T12:50:50.085Z,11.60
2023-04-09T12:53:17.837Z,9.60
2023-04-09T12:55:46.519Z,9.40
2023-04-09T12:58:14.966Z,11.60
2023-04-09T13:00:42.724Z,12.20
2023-04-09T13:03:10.820Z,10.80
2023-04-09T13:05:38.759Z,12.60
2023-04-09T13:08:07.729Z,13.00
2023-04-09T13:10:35.912Z,10.40
2023-04-09T13:13:03.851Z,10.40
2023-04-09T13:15:31.770Z,9.00
2023-04-09T13:18:00.131Z,7.00
2023-04-09T13:20:28.532Z,9.00
2023-04-09T13:22:56.296Z,11.60
2023-04-09T13:25:24.088Z,11.60
2023-04-09T13:27:51.832Z,10.00
2023-04-09T13:30:19.485Z,11.20
2023-04-09T13:32:47.635Z,8.80
2023-04-09T13:35:15.836Z,9.80
2023-04-09T13:37:43.572Z,10.00
2023-04-09T13:40:11.754Z,11.80
2023-04-09T13:42:39.499Z,7.00
2023-04-09T13:45:07.631Z,12.40
2023-04-09T13:47:35.443Z,9.40
2023-04-09T13:50:03.411Z,9.80
2023-04-09T13:52:31.254Z,12.40
2023-04-09T13:54:59.129Z,12.40
2023-04-09T13:57:27.938Z,13.40
2023-04-09T13:59:55.852Z,9.00
2023-04-09T14:02:23.881Z,10.00
2023-04-09T14:04:52.743Z,10.00
2023-04-09T14:07:20.760Z,7.00
2023-04-09T14:09:48.535Z,6.80
2023-04-09T14:12:16.474Z,8.60
2023-04-09T14:14:44.252Z,10.60
2023-04-09T14:17:11.967Z,9.40
2023-04-09T14:19:39.891Z,8.80
2023-04-09T14:22:09.320Z,7.80
2023-04-09T14:24:40.277Z,11.60
2023-04-09T14:27:08.425Z,9.20
2023-04-09T14:29:36.067Z,11.00
2023-04-09T14:32:03.804Z,7.00
2023-04-09T14:34:31.880Z,7.40
2023-04-09T14:36:59.688Z,9.80
2023-04-09T14:39:27.587Z,7.40
2023-04-09T14:41:57.303Z,10.60
2023-04-09T14:44:26.497Z,7.20
2023-04-09T14:46:55.393Z,10.80
2023-04-09T14:49:23.185Z,10.00
2023-04-09T14:51:50.994Z,11.20
2023-04-09T14:54:18.902Z,8.00
2023-04-09T14:56:46.863Z,10.80
2023-04-09T14:59:15.034Z,11.60
2023-04-09T15:01:43.092Z,11.20
2023-04-09T15:04:11.005Z,12.20
2023-04-09T15:06:38.912Z,12.20
2023-04-09T15:09:07.199Z,8.20
2023-04-09T15:11:35.487Z,10.20
2023-04-09T15:14:03.326Z,13.40
2023-04-09T15:16:33.549Z,11.60
2023-04-09T15:19:02.920Z,11.80
2023-04-09T15:21:31.689Z,11.80
2023-04-09T15:23:59.783Z,5.00
2023-04-09T15:26:28.391Z,10.20
2023-04-09T15:28:56.107Z,10.00
2023-04-09T15:31:24.083Z,7.60
2023-04-09T15:33:52.062Z,12.00
2023-04-09T15:36:20.187Z,10.80
2023-04-09T15:38:48.411Z,6.20
2023-04-09T15:41:17.377Z,11.20
2023-04-09T15:43:45.264Z,6.60
2023-04-09T15:46:13.257Z,9.40
2023-04-09T15:48:42.394Z,12.00
2023-04-09T15:51:11.437Z,6.75
2023-04-09T15:53:39.245Z,12.00
2023-04-09T15:56:07.101Z,12.00
2023-04-09T15:58:36.309Z,9.00
2023-04-09T16:01:04.601Z,8.00
2023-04-09T16:03:37.353Z,8.50
2023-04-09T16:06:07.603Z,6.00
2023-04-09T16:08:35.526Z,2.80
2023-04-09T16:11:03.444Z,5.20
2023-04-09T16:13:31.481Z,9.20
2023-04-09T16:15:59.640Z,7.00
2023-04-09T16:18:27.461Z,6.80
2023-04-09T16:20:55.214Z,10.00
2023-04-09T16:23:24.162Z,8.60
2023-04-09T16:25:52.626Z,8.60
2023-04-09T16:28:21.796Z,10.40
2023-04-09T16:30:49.587Z,9.00
2023-04-09T16:33:17.510Z,7.00
2023-04-09T16:35:45.504Z,9.25
2023-04-09T16:38:13.842Z,8.00
2023-04-09T16:40:41.727Z,6.75
2023-04-09T16:43:09.539Z,7.00
2023-04-09T16:45:37.384Z,4.00
2023-04-09T16:48:06.582Z,9.25
2023-04-09T16:50:34.756Z,9.00
2023-04-09T16:53:04.603Z,8.00
2023-04-09T16:55:32.929Z,8.00
2023-04-09T16:58:00.755Z,9.25
2023-04-09T17:00:29.052Z,3.25
2023-04-09T17:02:58.534Z,5.00
2023-04-09T17:05:26.735Z,7.00
2023-04-09T17:07:54.703Z,3.50
2023-04-09T17:10:22.538Z,10.50
2023-04-09T17:12:50.891Z,14.00
2023-04-09T17:15:19.370Z,12.00
2023-04-09T17:17:51.526Z,14.00
2023-04-09T17:20:19.360Z,11.50
2023-04-09T17:22:47.435Z,9.50
2023-04-09T17:25:15.195Z,4.00
2023-04-09T17:27:45.764Z,8.00
2023-04-09T17:30:14.037Z,3.75
2023-04-09T17:32:43.902Z,7.00
2023-04-09T17:35:11.773Z,7.00
2023-04-09T17:37:39.750Z,3.25
2023-04-09T17:40:08.018Z,6.25
2023-04-09T17:42:35.894Z,6.00
2023-04-09T17:45:04.843Z,7.00
2023-04-09T17:47:32.863Z,5.50
2023-04-09T17:50:01.754Z,8.50
2023-04-09T17:52:30.190Z,7.00
2023-04-09T17:54:58.606Z,3.00
2023-04-09T17:57:26.444Z,3.00
2023-04-09T17:59:54.423Z,7.00
2023-04-09T18:02:22.574Z,5.50
2023-04-09T18:04:51.343Z,6.75
2023-04-09T18:07:19.740Z,6.50
2023-04-09T18:09:47.748Z,7.00
2023-04-09T18:12:16.054Z,3.75
2023-04-09T18:14:44.079Z,4.00
2023-04-09T18:17:14.567Z,5.00
2023-04-09T18:19:43.931Z,8.00
2023-04-09T18:22:11.754Z,10.50
2023-04-09T18:24:40.121Z,8.50
2023-04-09T18:27:08.017Z,5.00
2023-04-09T18:29:36.672Z,5.00
2023-04-09T18:32:04.840Z,4.00
2023-04-09T18:34:32.659Z,6.00
2023-04-09T18:37:00.533Z,6.00
2023-04-09T18:39:28.431Z,6.00
2023-04-09T18:41:57.620Z,5.50
2023-04-09T18:44:26.175Z,1.00
2023-04-09T18:46:54.479Z,6.50
2023-04-09T18:49:22.327Z,4.00
2023-04-09T18:51:50.192Z,6.50
2023-04-09T18:54:18.537Z,9.25
2023-04-09T18:56:46.662Z,4.00
2023-04-09T18:59:14.647Z,6.50
2023-04-09T19:01:42.658Z,6.00
2023-04-09T19:04:10.772Z,7.00
2023-04-09T19:06:39.074Z,6.25
2023-04-09T19:09:08.140Z,4.00
2023-04-09T19:11:35.889Z,2.50
2023-04-09T19:14:03.708Z,6.25
2023-04-09T19:16:31.919Z,5.50
2023-04-09T19:19:00.198Z,5.00
2023-04-09T19:21:29.129Z,6.00
2023-04-09T19:23:57.175Z,8.00
2023-04-09T19:26:25.245Z,4.50
2023-04-09T19:28:53.356Z,7.50
2023-04-09T19:31:21.884Z,6.00
2023-04-09T19:33:49.993Z,6.50
2023-04-09T19:36:17.764Z,3.00
2023-04-09T19:38:45.621Z,4.00
2023-04-09T19:41:13.537Z,6.00
2023-04-09T19:43:42.636Z,6.60
2023-04-09T19:46:10.569Z,8.40
2023-04-09T19:48:38.472Z,7.00
2023-04-09T19:51:07.155Z,10.00
2023-04-09T19:53:36.682Z,7.00
2023-04-09T19:56:04.899Z,9.80
2023-04-09T19:58:33.963Z,10.80
2023-04-09T20:01:02.557Z,9.80
2023-04-09T20:03:30.724Z,7.00
2023-04-09T20:05:58.794Z,9.80
2023-04-09T20:08:26.882Z,12.80
2023-04-09T20:10:54.894Z,3.80
2023-04-09T20:13:23.664Z,12.60
2023-04-09T20:15:51.922Z,8.20
2023-04-09T20:18:19.785Z,10.20
2023-04-09T20:20:48.122Z,9.40
2023-04-09T20:23:16.308Z,6.40
2023-04-09T20:25:44.075Z,11.60
2023-04-09T20:28:11.989Z,9.60
2023-04-09T20:30:39.936Z,11.20
2023-04-09T20:33:07.853Z,9.20
2023-04-09T20:35:37.754Z,11.20
2023-04-09T20:38:05.679Z,12.00
2023-04-09T20:40:33.510Z,12.20
2023-04-09T20:43:01.411Z,15.80
2023-04-09T20:45:29.821Z,12.60
2023-04-09T20:47:58.047Z,17.40
2023-04-09T20:50:26.133Z,10.80
2023-04-09T20:52:54.117Z,13.00
2023-04-09T20:55:23.311Z,14.20
2023-04-09T20:57:53.657Z,9.40
2023-04-09T21:00:24.861Z,6.80
2023-04-09T21:02:54.398Z,15.00
2023-04-09T21:05:24.355Z,7.40
2023-04-09T21:07:54.818Z,15.00
2023-04-09T21:10:23.525Z,9.80
2023-04-09T21:12:51.399Z,11.20
2023-04-09T21:15:19.437Z,12.00
2023-04-09T21:17:47.386Z,12.00
2023-04-09T21:20:17.669Z,8.20
2023-04-09T21:22:45.898Z,10.40
2023-04-09T21:25:15.353Z,7.00
2023-04-09T21:27:43.585Z,7.00
2023-04-09T21:30:11.544Z,6.20
2023-04-09T21:32:39.878Z,9.80
2023-04-09T21:35:07.961Z,6.00
2023-04-09T21:37:35.900Z,15.40
2023-04-09T21:40:04.286Z,10.60
2023-04-09T21:42:32.866Z,13.20
2023-04-09T21:45:02.361Z,12.80
2023-04-09T21:47:30.609Z,13.00
2023-04-09T21:49:58.840Z,8.20
2023-04-09T21:52:26.610Z,18.00
2023-04-09T21:54:54.418Z,15.40
2023-04-09T21:57:23.261Z,11.20
2023-04-09T21:59:51.502Z,21.20
2023-04-09T22:02:19.587Z,18.20
2023-04-09T22:04:47.513Z,16.00
2023-04-09T22:07:15.620Z,11.20
2023-04-09T22:09:43.817Z,16.00
2023-04-09T22:12:12.306Z,15.80
2023-04-09T22:14:41.774Z,12.00
2023-04-09T22:17:09.737Z,17.00
2023-04-09T22:19:37.585Z,15.00
2023-04-09T22:22:05.731Z,13.00
2023-04-09T22:24:35.137Z,15.40
2023-04-09T22:27:02.970Z,17.20
2023-04-09T22:29:30.768Z,16.00
2023-04-09T22:31:58.614Z,18.20
2023-04-09T22:34:26.683Z,13.60
2023-04-09T22:36:54.503Z,21.00
2023-04-09T22:39:22.906Z,15.20
2023-04-09T22:41:50.638Z,19.00
2023-04-09T22:44:18.434Z,24.60
2023-04-09T22:46:47.025Z,24.00
2023-04-09T22:49:14.947Z,25.40
2023-04-09T22:51:42.823Z,19.60
2023-04-09T22:54:12.178Z,27.40
2023-04-09T22:56:41.114Z,27.60
2023-04-09T22:59:11.330Z,32.60
2023-04-09T23:01:40.043Z,39.80
2023-04-09T23:04:08.002Z,39.00
2023-04-09T23:06:36.196Z,33.60
2023-04-09T23:09:04.412Z,32.60
2023-04-09T23:11:32.822Z,37.20
2023-04-09T23:14:00.678Z,47.20
2023-04-09T23:16:28.410Z,49.00
2023-04-09T23:18:56.485Z,52.20
2023-04-09T23:21:24.516Z,49.00
2023-04-09T23:23:52.882Z,54.60
2023-04-09T23:26:20.924Z,48.60
2023-04-09T23:28:48.718Z,50.80
2023-04-09T23:31:16.376Z,42.20
2023-04-09T23:33:44.109Z,30.20
2023-04-09T23:36:12.237Z,26.80
2023-04-09T23:38:41.157Z,34.00
2023-04-09T23:41:08.833Z,29.00
2023-04-09T23:43:36.511Z,25.40
2023-04-09T23:46:04.170Z,26.80
2023-04-09T23:48:32.184Z,31.00
2023-04-09T23:51:01.206Z,31.00
2023-04-09T23:53:28.826Z,31.80
2023-04-09T23:55:56.524Z,32.40
2023-04-09T23:58:24.241Z,25.80
